sensor_id;sensor_type;location;lat;lon;timestamp;temperature;humidity
36654;DHT22;22650;49.350;20.898;2023-02-28T00:00:32;-4.00;99.90
36654;DHT22;22650;49.350;20.898;2023-02-28T00:03:06;-4.00;99.90
36654;DHT22;22650;49.350;20.898;2023-02-28T00:05:40;-4.00;99.90
36654;DHT22;22650;49.350;20.898;2023-02-28T00:08:13;-4.00;99.90
36654;DHT22;22650;49.350;20.898;2023-02-28T00:10:47;-4.00;99.90
36654;DHT22;22650;49.350;20.898;2023-02-28T00:13:20;-4.10;99.90
36654;DHT22;22650;49.350;20.898;2023-02-28T00:16:06;-4.10;99.90
36654;DHT22;22650;49.350;20.898;2023-02-28T00:18:41;-4.10;99.90
36654;DHT22;22650;49.350;20.898;2023-02-28T00:21:15;-4.20;99.90
36654;DHT22;22650;49.350;20.898;2023-02-28T00:23:48;-4.20;99.90
36654;DHT22;22650;49.350;20.898;2023-02-28T00:26:22;-4.20;99.90
36654;DHT22;22650;49.350;20.898;2023-02-28T00:28:55;-4.20;99.90
36654;DHT22;22650;49.350;20.898;2023-02-28T00:31:30;-4.20;99.90
36654;DHT22;22650;49.350;20.898;2023-02-28T00:34:04;-4.30;99.90
36654;DHT22;22650;49.350;20.898;2023-02-28T00:36:37;-4.30;99.90
36654;DHT22;22650;49.350;20.898;2023-02-28T00:39:12;-4.30;99.90
36654;DHT22;22650;49.350;20.898;2023-02-28T00:41:46;-4.30;99.90
36654;DHT22;22650;49.350;20.898;2023-02-28T00:44:19;-4.30;99.90
36654;DHT22;22650;49.350;20.898;2023-02-28T00:46:55;-4.40;99.90
36654;DHT22;22650;49.350;20.898;2023-02-28T00:49:29;-4.40;99.90
36654;DHT22;22650;49.350;20.898;2023-02-28T00:52:03;-4.40;99.90
36654;DHT22;22650;49.350;20.898;2023-02-28T00:54:36;-4.50;99.90
36654;DHT22;22650;49.350;20.898;2023-02-28T00:57:11;-4.50;99.90
36654;DHT22;22650;49.350;20.898;2023-02-28T00:59:45;-4.50;99.90
36654;DHT22;22650;49.350;20.898;2023-02-28T01:02:20;-4.50;99.90
36654;DHT22;22650;49.350;20.898;2023-02-28T01:04:53;-4.60;99.90
36654;DHT22;22650;49.350;20.898;2023-02-28T01:07:28;-4.60;99.90
36654;DHT22;22650;49.350;20.898;2023-02-28T01:10:02;-4.60;99.90
36654;DHT22;22650;49.350;20.898;2023-02-28T01:12:36;-4.70;99.90
36654;DHT22;22650;49.350;20.898;2023-02-28T01:15:11;-4.70;99.90
36654;DHT22;22650;49.350;20.898;2023-02-28T01:17:46;-4.70;99.90
36654;DHT22;22650;49.350;20.898;2023-02-28T01:20:19;-4.80;99.90
36654;DHT22;22650;49.350;20.898;2023-02-28T01:22:53;-4.80;99.90
36654;DHT22;22650;49.350;20.898;2023-02-28T01:25:26;-4.80;99.90
36654;DHT22;22650;49.350;20.898;2023-02-28T01:28:00;-4.90;99.90
36654;DHT22;22650;49.350;20.898;2023-02-28T01:30:33;-4.90;99.90
36654;DHT22;22650;49.350;20.898;2023-02-28T01:33:08;-4.90;99.90
36654;DHT22;22650;49.350;20.898;2023-02-28T01:35:42;-4.90;99.90
36654;DHT22;22650;49.350;20.898;2023-02-28T01:38:15;-4.90;99.90
36654;DHT22;22650;49.350;20.898;2023-02-28T01:40:54;-5.00;99.90
36654;DHT22;22650;49.350;20.898;2023-02-28T01:43:29;-5.00;99.90
36654;DHT22;22650;49.350;20.898;2023-02-28T01:46:02;-5.00;99.90
36654;DHT22;22650;49.350;20.898;2023-02-28T01:48:45;-5.10;99.90
36654;DHT22;22650;49.350;20.898;2023-02-28T01:51:22;-5.10;99.90
36654;DHT22;22650;49.350;20.898;2023-02-28T01:54:01;-5.10;99.90
36654;DHT22;22650;49.350;20.898;2023-02-28T01:56:36;-5.10;99.90
36654;DHT22;22650;49.350;20.898;2023-02-28T01:59:11;-5.20;99.90
36654;DHT22;22650;49.350;20.898;2023-02-28T02:01:46;-5.20;99.90
36654;DHT22;22650;49.350;20.898;2023-02-28T02:04:21;-5.20;99.90
36654;DHT22;22650;49.350;20.898;2023-02-28T02:06:56;-5.20;99.90
36654;DHT22;22650;49.350;20.898;2023-02-28T02:09:31;-5.30;99.90
36654;DHT22;22650;49.350;20.898;2023-02-28T02:12:13;-5.30;99.90
36654;DHT22;22650;49.350;20.898;2023-02-28T02:15:00;-5.30;99.90
36654;DHT22;22650;49.350;20.898;2023-02-28T02:17:40;-5.30;99.90
36654;DHT22;22650;49.350;20.898;2023-02-28T02:23:58;-5.40;99.90
36654;DHT22;22650;49.350;20.898;2023-02-28T02:30:18;-5.50;99.90
36654;DHT22;22650;49.350;20.898;2023-02-28T02:33:23;-5.50;99.90
36654;DHT22;22650;49.350;20.898;2023-02-28T02:36:02;-5.50;99.90
36654;DHT22;22650;49.350;20.898;2023-02-28T02:38:42;-5.50;99.90
36654;DHT22;22650;49.350;20.898;2023-02-28T02:41:22;-5.50;99.90
36654;DHT22;22650;49.350;20.898;2023-02-28T02:44:02;-5.60;99.90
36654;DHT22;22650;49.350;20.898;2023-02-28T02:46:39;-5.60;99.90
36654;DHT22;22650;49.350;20.898;2023-02-28T02:49:19;-5.60;99.90
36654;DHT22;22650;49.350;20.898;2023-02-28T02:51:57;-5.60;99.90
36654;DHT22;22650;49.350;20.898;2023-02-28T02:54:34;-5.60;99.90
36654;DHT22;22650;49.350;20.898;2023-02-28T02:57:13;-5.60;99.90
36654;DHT22;22650;49.350;20.898;2023-02-28T02:59:49;-5.70;99.90
36654;DHT22;22650;49.350;20.898;2023-02-28T03:02:26;-5.70;99.90
36654;DHT22;22650;49.350;20.898;2023-02-28T03:05:12;-5.70;99.90
36654;DHT22;22650;49.350;20.898;2023-02-28T03:07:48;-5.70;99.90
36654;DHT22;22650;49.350;20.898;2023-02-28T03:10:37;-5.70;99.90
36654;DHT22;22650;49.350;20.898;2023-02-28T03:13:37;-5.70;99.90
36654;DHT22;22650;49.350;20.898;2023-02-28T03:16:35;-5.70;99.90
36654;DHT22;22650;49.350;20.898;2023-02-28T03:19:33;-5.70;99.90
36654;DHT22;22650;49.350;20.898;2023-02-28T03:22:15;-5.70;99.90
36654;DHT22;22650;49.350;20.898;2023-02-28T03:24:56;-5.80;99.90
36654;DHT22;22650;49.350;20.898;2023-02-28T03:27:38;-5.70;99.90
36654;DHT22;22650;49.350;20.898;2023-02-28T03:30:22;-5.80;99.90
36654;DHT22;22650;49.350;20.898;2023-02-28T03:32:59;-5.80;99.90
36654;DHT22;22650;49.350;20.898;2023-02-28T03:35:39;-5.80;99.90
36654;DHT22;22650;49.350;20.898;2023-02-28T03:38:16;-5.80;99.90
36654;DHT22;22650;49.350;20.898;2023-02-28T03:41:12;-5.80;99.90
36654;DHT22;22650;49.350;20.898;2023-02-28T03:43:56;-5.80;99.90
36654;DHT22;22650;49.350;20.898;2023-02-28T03:46:35;-5.80;99.90
36654;DHT22;22650;49.350;20.898;2023-02-28T03:49:16;-5.90;99.90
36654;DHT22;22650;49.350;20.898;2023-02-28T03:51:52;-5.90;99.90
36654;DHT22;22650;49.350;20.898;2023-02-28T03:54:30;-5.90;99.90
36654;DHT22;22650;49.350;20.898;2023-02-28T03:57:10;-5.90;99.90
36654;DHT22;22650;49.350;20.898;2023-02-28T03:59:49;-5.90;99.90
36654;DHT22;22650;49.350;20.898;2023-02-28T04:02:24;-5.90;99.90
36654;DHT22;22650;49.350;20.898;2023-02-28T04:04:57;-5.90;99.90
36654;DHT22;22650;49.350;20.898;2023-02-28T04:07:31;-5.90;99.90
36654;DHT22;22650;49.350;20.898;2023-02-28T04:10:06;-5.90;99.90
36654;DHT22;22650;49.350;20.898;2023-02-28T04:12:41;-5.90;99.90
36654;DHT22;22650;49.350;20.898;2023-02-28T04:15:14;-5.90;99.90
36654;DHT22;22650;49.350;20.898;2023-02-28T04:17:48;-5.90;99.90
36654;DHT22;22650;49.350;20.898;2023-02-28T04:20:22;-5.90;99.90
36654;DHT22;22650;49.350;20.898;2023-02-28T04:22:55;-5.90;99.90
36654;DHT22;22650;49.350;20.898;2023-02-28T04:25:29;-5.90;99.90
36654;DHT22;22650;49.350;20.898;2023-02-28T04:28:04;-5.90;99.90
36654;DHT22;22650;49.350;20.898;2023-02-28T04:30:38;-5.90;99.90
36654;DHT22;22650;49.350;20.898;2023-02-28T04:33:12;-5.90;99.90
36654;DHT22;22650;49.350;20.898;2023-02-28T04:35:45;-5.90;99.90
36654;DHT22;22650;49.350;20.898;2023-02-28T04:38:19;-5.90;99.90
36654;DHT22;22650;49.350;20.898;2023-02-28T04:40:52;-5.80;99.90
36654;DHT22;22650;49.350;20.898;2023-02-28T04:43:28;-5.80;99.90
36654;DHT22;22650;49.350;20.898;2023-02-28T04:46:03;-5.80;99.90
36654;DHT22;22650;49.350;20.898;2023-02-28T04:48:38;-5.80;99.90
36654;DHT22;22650;49.350;20.898;2023-02-28T04:51:13;-5.80;99.90
36654;DHT22;22650;49.350;20.898;2023-02-28T04:53:47;-5.80;99.90
36654;DHT22;22650;49.350;20.898;2023-02-28T04:56:21;-5.70;99.90
36654;DHT22;22650;49.350;20.898;2023-02-28T04:58:56;-5.70;99.90
36654;DHT22;22650;49.350;20.898;2023-02-28T05:01:32;-5.70;99.90
36654;DHT22;22650;49.350;20.898;2023-02-28T05:04:05;-5.70;99.90
36654;DHT22;22650;49.350;20.898;2023-02-28T05:06:39;-5.70;99.90
36654;DHT22;22650;49.350;20.898;2023-02-28T05:09:12;-5.60;99.90
36654;DHT22;22650;49.350;20.898;2023-02-28T05:11:46;-5.70;99.90
36654;DHT22;22650;49.350;20.898;2023-02-28T05:14:22;-5.70;99.90
36654;DHT22;22650;49.350;20.898;2023-02-28T05:16:56;-5.70;99.90
36654;DHT22;22650;49.350;20.898;2023-02-28T05:19:29;-5.60;99.90
36654;DHT22;22650;49.350;20.898;2023-02-28T05:22:03;-5.60;99.90
36654;DHT22;22650;49.350;20.898;2023-02-28T05:24:36;-5.60;99.90
36654;DHT22;22650;49.350;20.898;2023-02-28T05:27:10;-5.60;99.90
36654;DHT22;22650;49.350;20.898;2023-02-28T05:29:45;-5.60;99.90
36654;DHT22;22650;49.350;20.898;2023-02-28T05:32:19;-5.60;99.90
36654;DHT22;22650;49.350;20.898;2023-02-28T05:34:52;-5.50;99.90
36654;DHT22;22650;49.350;20.898;2023-02-28T05:37:26;-5.50;99.90
36654;DHT22;22650;49.350;20.898;2023-02-28T05:39:59;-5.50;99.90
36654;DHT22;22650;49.350;20.898;2023-02-28T05:42:33;-5.50;99.90
36654;DHT22;22650;49.350;20.898;2023-02-28T05:45:09;-5.40;99.90
36654;DHT22;22650;49.350;20.898;2023-02-28T05:47:45;-5.40;99.90
36654;DHT22;22650;49.350;20.898;2023-02-28T05:50:19;-5.40;99.90
36654;DHT22;22650;49.350;20.898;2023-02-28T05:52:52;-5.30;99.90
36654;DHT22;22650;49.350;20.898;2023-02-28T05:55:26;-5.30;99.90
36654;DHT22;22650;49.350;20.898;2023-02-28T05:57:59;-5.30;99.90
36654;DHT22;22650;49.350;20.898;2023-02-28T06:00:34;-5.20;99.90
36654;DHT22;22650;49.350;20.898;2023-02-28T06:03:08;-5.20;99.90
36654;DHT22;22650;49.350;20.898;2023-02-28T06:05:41;-5.10;99.90
36654;DHT22;22650;49.350;20.898;2023-02-28T06:08:15;-5.10;99.90
36654;DHT22;22650;49.350;20.898;2023-02-28T06:10:48;-5.00;99.90
36654;DHT22;22650;49.350;20.898;2023-02-28T06:13:22;-5.00;99.90
36654;DHT22;22650;49.350;20.898;2023-02-28T06:16:00;-4.90;99.90
36654;DHT22;22650;49.350;20.898;2023-02-28T06:18:34;-4.90;99.90
36654;DHT22;22650;49.350;20.898;2023-02-28T06:21:08;-4.80;99.90
36654;DHT22;22650;49.350;20.898;2023-02-28T06:23:41;-4.80;99.90
36654;DHT22;22650;49.350;20.898;2023-02-28T06:26:16;-4.70;99.90
36654;DHT22;22650;49.350;20.898;2023-02-28T06:28:49;-4.60;99.90
36654;DHT22;22650;49.350;20.898;2023-02-28T06:31:24;-4.50;99.90
36654;DHT22;22650;49.350;20.898;2023-02-28T06:33:59;-4.40;99.90
36654;DHT22;22650;49.350;20.898;2023-02-28T06:36:32;-4.30;99.90
36654;DHT22;22650;49.350;20.898;2023-02-28T06:39:06;-4.30;99.90
36654;DHT22;22650;49.350;20.898;2023-02-28T06:41:40;-4.20;99.90
36654;DHT22;22650;49.350;20.898;2023-02-28T06:44:26;-4.10;99.90
36654;DHT22;22650;49.350;20.898;2023-02-28T06:47:09;-4.00;99.90
36654;DHT22;22650;49.350;20.898;2023-02-28T06:49:42;-3.90;99.90
36654;DHT22;22650;49.350;20.898;2023-02-28T06:52:17;-3.80;99.90
36654;DHT22;22650;49.350;20.898;2023-02-28T06:54:50;-3.80;99.90
36654;DHT22;22650;49.350;20.898;2023-02-28T06:57:33;-3.70;99.90
36654;DHT22;22650;49.350;20.898;2023-02-28T07:00:08;-3.60;99.90
36654;DHT22;22650;49.350;20.898;2023-02-28T07:02:43;-3.60;99.90
36654;DHT22;22650;49.350;20.898;2023-02-28T07:05:17;-3.50;99.90
36654;DHT22;22650;49.350;20.898;2023-02-28T07:07:51;-3.50;99.90
36654;DHT22;22650;49.350;20.898;2023-02-28T07:10:24;-3.50;99.90
36654;DHT22;22650;49.350;20.898;2023-02-28T07:12:58;-3.50;99.90
36654;DHT22;22650;49.350;20.898;2023-02-28T07:15:32;-3.40;99.90
36654;DHT22;22650;49.350;20.898;2023-02-28T07:18:07;-3.40;99.90
36654;DHT22;22650;49.350;20.898;2023-02-28T07:20:40;-3.40;99.90
36654;DHT22;22650;49.350;20.898;2023-02-28T07:23:14;-3.40;99.90
36654;DHT22;22650;49.350;20.898;2023-02-28T07:25:49;-3.30;99.90
36654;DHT22;22650;49.350;20.898;2023-02-28T07:28:22;-3.30;99.90
36654;DHT22;22650;49.350;20.898;2023-02-28T07:30:56;-3.20;99.90
36654;DHT22;22650;49.350;20.898;2023-02-28T07:33:31;-3.10;99.90
36654;DHT22;22650;49.350;20.898;2023-02-28T07:36:09;-3.10;99.90
36654;DHT22;22650;49.350;20.898;2023-02-28T07:38:47;-3.00;99.90
36654;DHT22;22650;49.350;20.898;2023-02-28T07:41:22;-2.90;99.90
36654;DHT22;22650;49.350;20.898;2023-02-28T07:44:00;-2.80;99.90
36654;DHT22;22650;49.350;20.898;2023-02-28T07:46:35;-2.70;99.90
36654;DHT22;22650;49.350;20.898;2023-02-28T07:49:10;-2.60;99.90
36654;DHT22;22650;49.350;20.898;2023-02-28T07:51:44;-2.40;99.90
36654;DHT22;22650;49.350;20.898;2023-02-28T07:54:17;-2.30;99.90
36654;DHT22;22650;49.350;20.898;2023-02-28T07:56:51;-2.10;99.90
36654;DHT22;22650;49.350;20.898;2023-02-28T07:59:24;-1.90;99.90
36654;DHT22;22650;49.350;20.898;2023-02-28T08:01:58;-1.70;99.90
36654;DHT22;22650;49.350;20.898;2023-02-28T08:04:33;-1.60;99.90
36654;DHT22;22650;49.350;20.898;2023-02-28T08:07:07;-1.30;99.90
36654;DHT22;22650;49.350;20.898;2023-02-28T08:09:42;-1.10;99.90
36654;DHT22;22650;49.350;20.898;2023-02-28T08:12:16;-0.80;99.90
36654;DHT22;22650;49.350;20.898;2023-02-28T08:14:49;-0.60;99.90
36654;DHT22;22650;49.350;20.898;2023-02-28T08:17:22;-0.30;99.90
36654;DHT22;22650;49.350;20.898;2023-02-28T08:19:57;-0.10;99.90
36654;DHT22;22650;49.350;20.898;2023-02-28T08:22:31;0.20;99.90
36654;DHT22;22650;49.350;20.898;2023-02-28T08:25:05;0.50;99.90
36654;DHT22;22650;49.350;20.898;2023-02-28T08:27:39;0.80;99.90
36654;DHT22;22650;49.350;20.898;2023-02-28T08:30:14;0.90;99.90
36654;DHT22;22650;49.350;20.898;2023-02-28T08:32:48;1.10;99.80
36654;DHT22;22650;49.350;20.898;2023-02-28T08:35:23;1.20;99.90
36654;DHT22;22650;49.350;20.898;2023-02-28T08:37:57;1.40;99.90
36654;DHT22;22650;49.350;20.898;2023-02-28T08:40:30;1.70;99.90
36654;DHT22;22650;49.350;20.898;2023-02-28T08:43:04;1.90;99.90
36654;DHT22;22650;49.350;20.898;2023-02-28T08:45:38;2.00;96.10
36654;DHT22;22650;49.350;20.898;2023-02-28T08:48:11;2.30;99.30
36654;DHT22;22650;49.350;20.898;2023-02-28T08:50:54;2.50;96.80
36654;DHT22;22650;49.350;20.898;2023-02-28T08:53:38;2.50;92.90
36654;DHT22;22650;49.350;20.898;2023-02-28T08:56:13;2.70;91.70
36654;DHT22;22650;49.350;20.898;2023-02-28T08:58:49;2.90;92.90
36654;DHT22;22650;49.350;20.898;2023-02-28T09:01:26;3.10;92.10
36654;DHT22;22650;49.350;20.898;2023-02-28T09:04:01;3.30;90.80
36654;DHT22;22650;49.350;20.898;2023-02-28T09:06:35;3.40;88.00
36654;DHT22;22650;49.350;20.898;2023-02-28T09:09:09;3.50;89.50
36654;DHT22;22650;49.350;20.898;2023-02-28T09:11:43;3.30;85.90
36654;DHT22;22650;49.350;20.898;2023-02-28T09:14:16;3.60;91.80
36654;DHT22;22650;49.350;20.898;2023-02-28T09:16:50;3.90;90.30
36654;DHT22;22650;49.350;20.898;2023-02-28T09:19:24;4.00;89.20
36654;DHT22;22650;49.350;20.898;2023-02-28T09:21:59;4.20;88.00
36654;DHT22;22650;49.350;20.898;2023-02-28T09:24:32;4.30;86.90
36654;DHT22;22650;49.350;20.898;2023-02-28T09:27:06;4.50;87.90
36654;DHT22;22650;49.350;20.898;2023-02-28T09:29:40;4.60;86.90
36654;DHT22;22650;49.350;20.898;2023-02-28T09:32:13;4.60;83.00
36654;DHT22;22650;49.350;20.898;2023-02-28T09:34:50;4.70;84.10
36654;DHT22;22650;49.350;20.898;2023-02-28T09:37:25;4.60;83.60
36654;DHT22;22650;49.350;20.898;2023-02-28T09:40:03;4.70;86.10
36654;DHT22;22650;49.350;20.898;2023-02-28T09:42:37;4.80;82.70
36654;DHT22;22650;49.350;20.898;2023-02-28T09:45:19;4.80;83.00
36654;DHT22;22650;49.350;20.898;2023-02-28T09:47:58;5.00;84.50
36654;DHT22;22650;49.350;20.898;2023-02-28T09:50:35;5.00;81.00
36654;DHT22;22650;49.350;20.898;2023-02-28T09:53:18;5.20;84.40
36654;DHT22;22650;49.350;20.898;2023-02-28T09:55:55;5.40;80.00
36654;DHT22;22650;49.350;20.898;2023-02-28T09:58:41;5.50;80.70
36654;DHT22;22650;49.350;20.898;2023-02-28T10:01:23;5.50;80.00
36654;DHT22;22650;49.350;20.898;2023-02-28T10:04:00;5.80;83.80
36654;DHT22;22650;49.350;20.898;2023-02-28T10:06:41;6.20;81.50
36654;DHT22;22650;49.350;20.898;2023-02-28T10:09:23;6.40;80.30
36654;DHT22;22650;49.350;20.898;2023-02-28T10:12:05;6.60;76.40
36654;DHT22;22650;49.350;20.898;2023-02-28T10:14:45;6.60;77.30
36654;DHT22;22650;49.350;20.898;2023-02-28T10:17:21;6.70;76.70
36654;DHT22;22650;49.350;20.898;2023-02-28T10:20:01;6.70;77.90
36654;DHT22;22650;49.350;20.898;2023-02-28T10:22:44;6.90;77.20
36654;DHT22;22650;49.350;20.898;2023-02-28T10:25:25;7.00;75.50
36654;DHT22;22650;49.350;20.898;2023-02-28T10:28:08;7.30;76.90
36654;DHT22;22650;49.350;20.898;2023-02-28T10:30:44;7.30;73.60
36654;DHT22;22650;49.350;20.898;2023-02-28T10:33:22;7.10;72.00
36654;DHT22;22650;49.350;20.898;2023-02-28T10:35:57;7.10;70.90
36654;DHT22;22650;49.350;20.898;2023-02-28T10:38:33;7.10;73.70
36654;DHT22;22650;49.350;20.898;2023-02-28T10:41:10;7.30;73.80
36654;DHT22;22650;49.350;20.898;2023-02-28T10:43:44;7.60;73.30
36654;DHT22;22650;49.350;20.898;2023-02-28T10:46:19;7.60;72.00
36654;DHT22;22650;49.350;20.898;2023-02-28T10:49:02;7.70;71.30
36654;DHT22;22650;49.350;20.898;2023-02-28T10:51:38;7.80;71.40
36654;DHT22;22650;49.350;20.898;2023-02-28T10:54:20;7.80;71.30
36654;DHT22;22650;49.350;20.898;2023-02-28T10:57:20;7.90;70.20
36654;DHT22;22650;49.350;20.898;2023-02-28T11:00:14;8.00;69.90
36654;DHT22;22650;49.350;20.898;2023-02-28T11:02:48;8.10;71.30
36654;DHT22;22650;49.350;20.898;2023-02-28T11:05:27;8.10;68.70
36654;DHT22;22650;49.350;20.898;2023-02-28T11:08:06;7.90;68.30
36654;DHT22;22650;49.350;20.898;2023-02-28T11:10:46;8.00;67.40
36654;DHT22;22650;49.350;20.898;2023-02-28T11:13:26;8.00;67.80
36654;DHT22;22650;49.350;20.898;2023-02-28T11:16:03;8.00;67.50
36654;DHT22;22650;49.350;20.898;2023-02-28T11:18:41;8.30;68.80
36654;DHT22;22650;49.350;20.898;2023-02-28T11:21:22;8.40;66.50
36654;DHT22;22650;49.350;20.898;2023-02-28T11:24:01;8.70;67.20
36654;DHT22;22650;49.350;20.898;2023-02-28T11:26:37;8.90;66.30
36654;DHT22;22650;49.350;20.898;2023-02-28T11:29:18;9.20;68.00
36654;DHT22;22650;49.350;20.898;2023-02-28T11:32:02;9.50;66.00
36654;DHT22;22650;49.350;20.898;2023-02-28T11:34:37;9.80;65.20
36654;DHT22;22650;49.350;20.898;2023-02-28T11:37:13;9.90;66.30
36654;DHT22;22650;49.350;20.898;2023-02-28T11:39:48;9.90;64.40
36654;DHT22;22650;49.350;20.898;2023-02-28T11:42:44;9.90;64.70
36654;DHT22;22650;49.350;20.898;2023-02-28T11:45:36;10.20;65.50
36654;DHT22;22650;49.350;20.898;2023-02-28T11:48:20;10.30;65.10
36654;DHT22;22650;49.350;20.898;2023-02-28T11:51:03;10.30;63.50
36654;DHT22;22650;49.350;20.898;2023-02-28T11:53:51;10.30;63.10
36654;DHT22;22650;49.350;20.898;2023-02-28T11:56:33;10.20;62.10
36654;DHT22;22650;49.350;20.898;2023-02-28T11:59:22;10.30;63.50
36654;DHT22;22650;49.350;20.898;2023-02-28T12:02:23;10.00;65.10
36654;DHT22;22650;49.350;20.898;2023-02-28T12:05:16;10.10;64.70
36654;DHT22;22650;49.350;20.898;2023-02-28T12:08:00;10.10;63.10
36654;DHT22;22650;49.350;20.898;2023-02-28T12:10:42;10.10;61.80
36654;DHT22;22650;49.350;20.898;2023-02-28T12:13:22;10.30;63.00
36654;DHT22;22650;49.350;20.898;2023-02-28T12:19:16;10.30;61.90
36654;DHT22;22650;49.350;20.898;2023-02-28T12:22:19;10.40;63.70
36654;DHT22;22650;49.350;20.898;2023-02-28T12:27:51;10.20;62.70
36654;DHT22;22650;49.350;20.898;2023-02-28T12:30:28;10.30;63.10
36654;DHT22;22650;49.350;20.898;2023-02-28T12:33:05;10.40;64.40
36654;DHT22;22650;49.350;20.898;2023-02-28T12:35:45;10.60;64.70
36654;DHT22;22650;49.350;20.898;2023-02-28T12:38:22;10.30;62.10
36654;DHT22;22650;49.350;20.898;2023-02-28T12:40:59;10.30;64.60
36654;DHT22;22650;49.350;20.898;2023-02-28T12:43:37;10.30;62.90
36654;DHT22;22650;49.350;20.898;2023-02-28T12:46:16;10.50;63.70
36654;DHT22;22650;49.350;20.898;2023-02-28T12:48:53;10.40;61.40
36654;DHT22;22650;49.350;20.898;2023-02-28T12:51:30;10.40;62.50
36654;DHT22;22650;49.350;20.898;2023-02-28T12:54:12;10.40;62.30
36654;DHT22;22650;49.350;20.898;2023-02-28T12:56:54;10.60;62.20
36654;DHT22;22650;49.350;20.898;2023-02-28T12:59:36;10.30;60.70
36654;DHT22;22650;49.350;20.898;2023-02-28T13:05:46;10.40;62.90
36654;DHT22;22650;49.350;20.898;2023-02-28T13:11:28;10.20;62.30
36654;DHT22;22650;49.350;20.898;2023-02-28T13:14:05;10.10;61.30
36654;DHT22;22650;49.350;20.898;2023-02-28T13:16:55;10.00;61.90
36654;DHT22;22650;49.350;20.898;2023-02-28T13:19:31;10.00;64.20
36654;DHT22;22650;49.350;20.898;2023-02-28T13:22:09;10.10;63.80
36654;DHT22;22650;49.350;20.898;2023-02-28T13:24:51;10.10;63.70
36654;DHT22;22650;49.350;20.898;2023-02-28T13:27:34;9.80;63.20
36654;DHT22;22650;49.350;20.898;2023-02-28T13:33:26;9.70;62.20
36654;DHT22;22650;49.350;20.898;2023-02-28T13:36:07;9.20;63.60
36654;DHT22;22650;49.350;20.898;2023-02-28T13:38:42;9.10;65.60
36654;DHT22;22650;49.350;20.898;2023-02-28T13:41:44;9.00;64.90
36654;DHT22;22650;49.350;20.898;2023-02-28T13:44:19;8.90;66.60
36654;DHT22;22650;49.350;20.898;2023-02-28T13:47:24;8.80;65.90
36654;DHT22;22650;49.350;20.898;2023-02-28T13:50:23;8.90;67.10
36654;DHT22;22650;49.350;20.898;2023-02-28T13:53:30;8.80;63.70
36654;DHT22;22650;49.350;20.898;2023-02-28T13:56:18;8.90;65.40
36654;DHT22;22650;49.350;20.898;2023-02-28T13:59:01;8.80;65.80
36654;DHT22;22650;49.350;20.898;2023-02-28T14:01:49;8.50;65.40
36654;DHT22;22650;49.350;20.898;2023-02-28T14:04:50;8.30;65.60
36654;DHT22;22650;49.350;20.898;2023-02-28T14:07:30;8.30;68.30
36654;DHT22;22650;49.350;20.898;2023-02-28T14:10:15;8.30;67.60
36654;DHT22;22650;49.350;20.898;2023-02-28T14:12:55;8.40;66.70
36654;DHT22;22650;49.350;20.898;2023-02-28T14:15:44;8.30;66.80
36654;DHT22;22650;49.350;20.898;2023-02-28T14:18:25;8.10;67.30
36654;DHT22;22650;49.350;20.898;2023-02-28T14:21:10;8.00;67.70
36654;DHT22;22650;49.350;20.898;2023-02-28T14:24:13;8.00;68.10
36654;DHT22;22650;49.350;20.898;2023-02-28T14:27:17;7.80;67.90
36654;DHT22;22650;49.350;20.898;2023-02-28T14:33:25;7.60;70.10
36654;DHT22;22650;49.350;20.898;2023-02-28T14:36:07;7.50;69.30
36654;DHT22;22650;49.350;20.898;2023-02-28T14:38:45;7.40;70.10
36654;DHT22;22650;49.350;20.898;2023-02-28T14:41:23;7.20;69.60
36654;DHT22;22650;49.350;20.898;2023-02-28T14:43:58;7.20;70.60
36654;DHT22;22650;49.350;20.898;2023-02-28T14:46:36;7.10;70.70
36654;DHT22;22650;49.350;20.898;2023-02-28T14:49:18;7.10;70.70
36654;DHT22;22650;49.350;20.898;2023-02-28T14:52:03;7.00;71.90
36654;DHT22;22650;49.350;20.898;2023-02-28T14:54:40;7.00;71.40
36654;DHT22;22650;49.350;20.898;2023-02-28T14:57:24;6.90;71.60
36654;DHT22;22650;49.350;20.898;2023-02-28T15:00:00;6.70;72.50
36654;DHT22;22650;49.350;20.898;2023-02-28T15:02:37;6.30;72.20
36654;DHT22;22650;49.350;20.898;2023-02-28T15:05:22;6.20;73.00
36654;DHT22;22650;49.350;20.898;2023-02-28T15:08:11;6.10;74.10
36654;DHT22;22650;49.350;20.898;2023-02-28T15:10:50;6.10;75.20
36654;DHT22;22650;49.350;20.898;2023-02-28T15:13:29;6.00;74.40
36654;DHT22;22650;49.350;20.898;2023-02-28T15:16:08;5.90;74.80
36654;DHT22;22650;49.350;20.898;2023-02-28T15:18:46;5.70;74.90
36654;DHT22;22650;49.350;20.898;2023-02-28T15:21:25;5.50;75.80
36654;DHT22;22650;49.350;20.898;2023-02-28T15:24:04;5.20;76.70
36654;DHT22;22650;49.350;20.898;2023-02-28T15:26:40;5.00;77.20
36654;DHT22;22650;49.350;20.898;2023-02-28T15:29:18;4.90;78.10
36654;DHT22;22650;49.350;20.898;2023-02-28T15:31:56;4.70;79.30
36654;DHT22;22650;49.350;20.898;2023-02-28T15:34:35;4.60;79.10
36654;DHT22;22650;49.350;20.898;2023-02-28T15:37:37;4.50;79.80
36654;DHT22;22650;49.350;20.898;2023-02-28T15:40:15;4.30;80.60
36654;DHT22;22650;49.350;20.898;2023-02-28T15:43:00;4.20;81.60
36654;DHT22;22650;49.350;20.898;2023-02-28T15:45:38;4.00;82.10
36654;DHT22;22650;49.350;20.898;2023-02-28T15:48:17;3.90;83.00
36654;DHT22;22650;49.350;20.898;2023-02-28T15:50:53;3.90;83.90
36654;DHT22;22650;49.350;20.898;2023-02-28T15:53:31;3.60;84.70
36654;DHT22;22650;49.350;20.898;2023-02-28T15:56:12;3.60;85.60
36654;DHT22;22650;49.350;20.898;2023-02-28T15:58:52;3.50;87.10
36654;DHT22;22650;49.350;20.898;2023-02-28T16:01:28;3.30;88.80
36654;DHT22;22650;49.350;20.898;2023-02-28T16:04:10;3.20;90.50
36654;DHT22;22650;49.350;20.898;2023-02-28T16:06:45;3.10;91.60
36654;DHT22;22650;49.350;20.898;2023-02-28T16:09:22;3.10;92.80
36654;DHT22;22650;49.350;20.898;2023-02-28T16:11:59;3.00;94.60
36654;DHT22;22650;49.350;20.898;2023-02-28T16:14:33;2.90;95.20
36654;DHT22;22650;49.350;20.898;2023-02-28T16:17:19;2.90;96.80
36654;DHT22;22650;49.350;20.898;2023-02-28T16:19:53;2.80;98.50
36654;DHT22;22650;49.350;20.898;2023-02-28T16:22:27;2.70;98.70
36654;DHT22;22650;49.350;20.898;2023-02-28T16:25:02;2.60;99.70
36654;DHT22;22650;49.350;20.898;2023-02-28T16:27:37;2.60;99.90
36654;DHT22;22650;49.350;20.898;2023-02-28T16:30:17;2.60;99.90
36654;DHT22;22650;49.350;20.898;2023-02-28T16:32:54;2.50;99.90
36654;DHT22;22650;49.350;20.898;2023-02-28T16:35:28;2.50;99.90
36654;DHT22;22650;49.350;20.898;2023-02-28T16:38:02;2.40;99.90
36654;DHT22;22650;49.350;20.898;2023-02-28T16:40:37;2.30;99.90
36654;DHT22;22650;49.350;20.898;2023-02-28T16:43:16;2.30;99.90
36654;DHT22;22650;49.350;20.898;2023-02-28T16:45:54;2.10;99.90
36654;DHT22;22650;49.350;20.898;2023-02-28T16:48:30;2.00;99.90
36654;DHT22;22650;49.350;20.898;2023-02-28T16:51:04;2.00;99.90
36654;DHT22;22650;49.350;20.898;2023-02-28T16:53:38;1.80;99.90
36654;DHT22;22650;49.350;20.898;2023-02-28T16:56:17;1.70;99.90